createdAt,value
2018-05-13T00:00:55.451Z,9.40
2018-05-13T00:03:22.446Z,9.10
2018-05-13T00:05:49.464Z,10.33
2018-05-13T00:08:15.731Z,9.30
2018-05-13T00:10:42.047Z,10.27
2018-05-13T00:13:08.339Z,9.07
2018-05-13T00:15:34.689Z,10.37
2018-05-13T00:18:01.952Z,10.40
2018-05-13T00:20:28.951Z,10.00
2018-05-13T00:22:55.580Z,8.60
2018-05-13T00:25:21.850Z,10.13
2018-05-13T00:27:48.186Z,10.43
2018-05-13T00:30:14.458Z,9.90
2018-05-13T00:32:41.496Z,10.77
2018-05-13T00:35:07.767Z,10.30
2018-05-13T00:37:34.046Z,11.00
2018-05-13T00:40:00.336Z,11.20
2018-05-13T00:42:27.036Z,11.90
2018-05-13T00:44:54.055Z,11.27
2018-05-13T00:47:21.071Z,10.43
2018-05-13T00:49:48.056Z,11.20
2018-05-13T00:52:14.332Z,10.30
2018-05-13T00:54:52.706Z,6.93
2018-05-13T00:57:18.995Z,10.23
2018-05-13T00:59:45.713Z,9.83
2018-05-13T01:02:11.996Z,8.10
2018-05-13T01:04:39.030Z,10.63
2018-05-13T01:07:05.640Z,9.77
2018-05-13T01:09:31.966Z,8.30
2018-05-13T01:11:58.215Z,8.63
2018-05-13T01:14:24.893Z,10.77
2018-05-13T01:16:51.175Z,9.97
2018-05-13T01:19:17.485Z,9.20
2018-05-13T01:21:44.492Z,10.70
2018-05-13T01:24:10.757Z,9.27
2018-05-13T01:26:37.415Z,10.00
2018-05-13T01:29:04.521Z,8.97
2018-05-13T01:31:30.781Z,10.17
2018-05-13T01:33:57.413Z,9.90
2018-05-13T01:36:23.683Z,9.43
2018-05-13T01:38:50.687Z,9.10
2018-05-13T01:41:17.351Z,9.90
2018-05-13T01:43:43.638Z,9.47
2018-05-13T01:46:10.701Z,9.77
2018-05-13T01:48:37.678Z,8.90
2018-05-13T01:51:04.055Z,10.07
2018-05-13T01:53:30.297Z,7.87
2018-05-13T01:55:57.346Z,8.00
2018-05-13T01:58:23.973Z,7.67
2018-05-13T02:00:50.196Z,8.60
2018-05-13T02:03:17.308Z,7.30
2018-05-13T02:05:43.568Z,7.70
2018-05-13T02:08:09.852Z,8.37
2018-05-13T02:10:36.065Z,7.63
2018-05-13T02:13:03.083Z,7.27
2018-05-13T02:15:29.278Z,7.30
2018-05-13T02:17:56.277Z,7.17
2018-05-13T02:20:22.466Z,6.80
2018-05-13T02:22:49.428Z,7.70
2018-05-13T02:25:16.367Z,7.10
2018-05-13T02:27:43.381Z,7.30
2018-05-13T02:30:09.601Z,7.80
2018-05-13T02:32:35.901Z,8.37
2018-05-13T02:35:02.872Z,8.63
2018-05-13T02:37:29.148Z,7.43
2018-05-13T02:39:55.393Z,7.77
2018-05-13T02:42:21.992Z,6.90
2018-05-13T02:44:48.968Z,7.20
2018-05-13T02:47:15.233Z,8.07
2018-05-13T02:49:41.893Z,6.67
2018-05-13T02:52:08.918Z,6.33
2018-05-13T02:54:35.188Z,6.20
2018-05-13T02:57:02.143Z,6.70
2018-05-13T02:59:29.148Z,5.90
2018-05-13T03:01:55.378Z,6.23
2018-05-13T03:04:22.013Z,5.60
2018-05-13T03:06:48.275Z,6.17
2018-05-13T03:09:14.509Z,6.27
2018-05-13T03:11:40.787Z,5.83
2018-05-13T03:14:07.832Z,7.00
2018-05-13T03:16:34.806Z,6.90
2018-05-13T03:19:01.147Z,6.80
2018-05-13T03:21:27.738Z,5.30
2018-05-13T03:23:54.007Z,5.90
2018-05-13T03:26:21.004Z,7.70
2018-05-13T03:28:47.276Z,6.77
2018-05-13T03:31:13.557Z,7.63
2018-05-13T03:33:39.804Z,6.73
2018-05-13T03:36:06.072Z,7.13
2018-05-13T03:38:32.342Z,6.70
2018-05-13T03:40:59.318Z,6.17
2018-05-13T03:43:25.532Z,6.80
2018-05-13T03:45:52.512Z,6.37
2018-05-13T03:48:18.752Z,6.90
2018-05-13T03:50:45.749Z,7.00
2018-05-13T03:53:12.022Z,7.70
2018-05-13T03:55:38.636Z,8.00
2018-05-13T03:58:05.627Z,6.20
2018-05-13T04:00:31.981Z,7.50
2018-05-13T04:02:58.229Z,7.10
2018-05-13T04:05:25.248Z,6.13
2018-05-13T04:11:15.547Z,7.30
2018-05-13T04:13:53.862Z,7.90
2018-05-13T04:16:20.532Z,6.93
2018-05-13T04:18:47.488Z,6.70
2018-05-13T04:21:13.741Z,7.67
2018-05-13T04:23:39.989Z,6.47
2018-05-13T04:26:06.638Z,6.87
2018-05-13T04:28:33.268Z,7.93
2018-05-13T04:31:00.299Z,7.00
2018-05-13T04:33:26.544Z,7.53
2018-05-13T04:35:52.787Z,7.10
2018-05-13T04:38:19.002Z,6.90
2018-05-13T04:40:45.224Z,6.50
2018-05-13T04:43:11.507Z,6.93
2018-05-13T04:45:38.462Z,7.53
2018-05-13T04:48:05.477Z,6.30
2018-05-13T04:50:32.457Z,7.10
2018-05-13T04:52:58.691Z,6.37
2018-05-13T04:55:24.969Z,6.37
2018-05-13T04:57:51.222Z,6.70
2018-05-13T05:00:17.491Z,6.80
2018-05-13T05:02:44.111Z,6.40
2018-05-13T05:05:10.372Z,6.63
2018-05-13T05:07:36.617Z,7.10
2018-05-13T05:10:02.917Z,6.43
2018-05-13T05:12:29.878Z,7.73
2018-05-13T05:17:25.878Z,7.30
2018-05-13T05:19:52.918Z,7.50
2018-05-13T05:22:19.889Z,7.00
2018-05-13T05:24:46.088Z,6.37
2018-05-13T05:27:12.335Z,7.00
2018-05-13T05:29:38.982Z,6.63
2018-05-13T05:32:05.991Z,5.73
2018-05-13T05:34:32.971Z,6.67
2018-05-13T05:36:59.228Z,6.10
2018-05-13T05:39:26.188Z,5.87
2018-05-13T05:41:53.186Z,5.93
2018-05-13T05:44:20.140Z,5.23
2018-05-13T05:46:46.371Z,6.50
2018-05-13T05:49:13.364Z,5.40
2018-05-13T05:51:40.012Z,6.37
2018-05-13T05:54:07.008Z,5.47
2018-05-13T05:56:34.042Z,6.40
2018-05-13T05:59:00.298Z,6.03
2018-05-13T06:01:27.641Z,5.97
2018-05-13T06:03:53.889Z,6.90
2018-05-13T06:06:20.539Z,5.70
2018-05-13T06:08:46.835Z,5.77
2018-05-13T06:11:13.824Z,4.67
2018-05-13T06:13:41.187Z,6.70
2018-05-13T06:16:07.784Z,6.53
2018-05-13T06:18:34.788Z,6.67
2018-05-13T06:21:01.053Z,6.80
2018-05-13T06:23:27.355Z,6.00
2018-05-13T06:25:54.025Z,6.90
2018-05-13T06:28:20.242Z,7.87
2018-05-13T06:30:46.497Z,6.63
2018-05-13T06:33:12.723Z,7.23
2018-05-13T06:35:39.370Z,6.40
2018-05-13T06:38:05.993Z,6.57
2018-05-13T06:40:32.640Z,7.47
2018-05-13T06:42:58.889Z,7.37
2018-05-13T06:45:25.185Z,6.63
2018-05-13T06:47:52.204Z,8.00
2018-05-13T06:50:18.477Z,6.93
2018-05-13T06:52:44.775Z,6.33
2018-05-13T06:55:11.495Z,7.63
2018-05-13T06:57:38.168Z,6.70
2018-05-13T07:00:04.428Z,6.60
2018-05-13T07:02:31.069Z,6.63
2018-05-13T07:04:58.039Z,7.53
2018-05-13T07:07:24.692Z,7.03
2018-05-13T07:09:50.988Z,5.40
2018-05-13T07:12:17.660Z,5.30
2018-05-13T07:14:43.884Z,7.37
2018-05-13T07:17:11.003Z,5.23
2018-05-13T07:19:37.713Z,6.70
2018-05-13T07:22:03.985Z,8.40
2018-05-13T07:24:30.313Z,5.97
2018-05-13T07:26:56.540Z,6.77
2018-05-13T07:29:23.189Z,6.07
2018-05-13T07:31:49.440Z,7.00
2018-05-13T07:34:16.125Z,6.10
2018-05-13T07:36:43.121Z,5.90
2018-05-13T07:39:09.739Z,6.53
2018-05-13T07:41:36.030Z,7.10
2018-05-13T07:44:02.309Z,7.20
2018-05-13T07:46:28.930Z,6.70
2018-05-13T07:48:55.953Z,6.77
2018-05-13T07:51:22.163Z,6.40
2018-05-13T07:53:48.409Z,7.07
2018-05-13T07:56:14.644Z,6.43
2018-05-13T07:58:40.956Z,6.27
2018-05-13T08:01:07.220Z,6.63
2018-05-13T08:03:33.491Z,7.40
2018-05-13T08:05:59.754Z,7.10
2018-05-13T08:08:26.796Z,7.53
2018-05-13T08:10:53.800Z,7.53
2018-05-13T08:13:20.100Z,6.47
2018-05-13T08:15:46.351Z,6.90
2018-05-13T08:18:12.641Z,5.87
2018-05-13T08:20:38.901Z,7.77
2018-05-13T08:23:05.905Z,6.93
2018-05-13T08:25:32.158Z,7.30
2018-05-13T08:27:58.381Z,8.20
2018-05-13T08:30:25.413Z,7.03
2018-05-13T08:32:51.643Z,8.70
2018-05-13T08:35:17.926Z,8.90
2018-05-13T08:37:44.199Z,8.60
2018-05-13T08:40:10.845Z,9.53
2018-05-13T08:42:37.099Z,7.90
2018-05-13T08:45:03.383Z,8.93
2018-05-13T08:47:30.369Z,8.70
2018-05-13T08:49:56.643Z,8.00
2018-05-13T08:52:22.925Z,8.37
2018-05-13T08:54:49.952Z,8.30
2018-05-13T08:57:16.209Z,8.00
2018-05-13T08:59:53.174Z,8.13
2018-05-13T09:02:19.416Z,7.43
2018-05-13T09:04:46.378Z,8.90
2018-05-13T09:07:13.389Z,8.30
2018-05-13T09:09:39.683Z,9.43
2018-05-13T09:12:06.340Z,10.57
2018-05-13T09:14:32.585Z,7.43
2018-05-13T09:16:58.814Z,8.73
2018-05-13T09:19:25.042Z,9.70
2018-05-13T09:21:51.681Z,9.20
2018-05-13T09:24:17.961Z,14.53
2018-05-13T09:26:44.201Z,20.53
2018-05-13T09:29:10.458Z,12.50
2018-05-13T09:31:36.796Z,10.30
2018-05-13T09:34:03.450Z,8.47
2018-05-13T09:36:30.469Z,11.80
2018-05-13T09:38:57.208Z,8.97
2018-05-13T09:41:23.449Z,9.40
2018-05-13T09:43:49.680Z,8.60
2018-05-13T09:46:16.726Z,10.63
2018-05-13T09:48:43.047Z,9.30
2018-05-13T09:51:09.379Z,10.07
2018-05-13T09:53:35.552Z,9.77
2018-05-13T09:56:02.161Z,10.30
2018-05-13T09:58:29.151Z,9.73
2018-05-13T10:00:55.426Z,9.93
2018-05-13T10:03:22.389Z,8.90
2018-05-13T10:05:48.655Z,10.43
2018-05-13T10:08:15.302Z,10.53
2018-05-13T10:10:41.594Z,9.53
2018-05-13T10:13:08.635Z,12.47
2018-05-13T10:15:35.234Z,11.17
2018-05-13T10:18:01.509Z,11.50
2018-05-13T10:20:28.459Z,13.53
2018-05-13T10:22:54.758Z,9.73
2018-05-13T10:25:22.140Z,9.47
2018-05-13T10:27:48.416Z,12.80
2018-05-13T10:30:15.370Z,14.07
2018-05-13T10:32:42.399Z,13.30
2018-05-13T10:35:08.911Z,10.60
2018-05-13T10:37:35.721Z,13.13
2018-05-13T10:40:02.736Z,11.57
2018-05-13T10:42:30.788Z,10.23
2018-05-13T10:44:57.681Z,11.73
2018-05-13T10:47:25.045Z,11.67
2018-05-13T10:49:52.911Z,12.10
2018-05-13T10:52:19.508Z,13.57
2018-05-13T10:54:46.950Z,10.00
2018-05-13T10:57:13.713Z,12.30
2018-05-13T10:59:40.245Z,11.67
2018-05-13T11:02:06.603Z,12.03
2018-05-13T11:04:33.099Z,14.07
2018-05-13T11:06:59.863Z,13.50
2018-05-13T11:09:26.939Z,14.03
2018-05-13T11:11:54.031Z,11.33
2018-05-13T11:14:20.934Z,10.03
2018-05-13T11:16:48.696Z,10.90
2018-05-13T11:19:15.816Z,11.27
2018-05-13T11:21:42.462Z,14.50
2018-05-13T11:24:09.475Z,15.17
2018-05-13T11:26:36.500Z,12.97
2018-05-13T11:29:02.782Z,13.93
2018-05-13T11:31:29.097Z,11.00
2018-05-13T11:33:56.036Z,14.07
2018-05-13T11:36:22.356Z,12.73
2018-05-13T11:38:48.606Z,10.67
2018-05-13T11:41:15.287Z,14.17
2018-05-13T11:43:42.301Z,11.70
2018-05-13T11:46:08.960Z,13.93
2018-05-13T11:48:35.979Z,11.03
2018-05-13T11:51:03.046Z,14.33
2018-05-13T11:53:29.272Z,12.50
2018-05-13T11:55:56.276Z,15.67
2018-05-13T11:58:23.340Z,18.23
2018-05-13T12:00:49.587Z,17.83
2018-05-13T12:03:15.934Z,15.00
2018-05-13T12:08:13.905Z,16.30
2018-05-13T12:10:40.185Z,17.17
2018-05-13T12:13:06.796Z,17.47
2018-05-13T12:15:33.115Z,17.93
2018-05-13T12:17:59.387Z,19.00
2018-05-13T12:20:26.454Z,16.83
2018-05-13T12:22:52.730Z,18.30
2018-05-13T12:25:19.055Z,18.20
2018-05-13T12:27:45.336Z,19.43
2018-05-13T12:30:12.311Z,18.27
2018-05-13T12:32:39.296Z,18.23
2018-05-13T12:35:05.566Z,17.67
2018-05-13T12:37:31.887Z,19.90
2018-05-13T12:39:58.495Z,19.23
2018-05-13T12:42:24.831Z,18.03
2018-05-13T12:44:51.786Z,18.83
2018-05-13T12:47:18.074Z,17.17
2018-05-13T12:49:44.366Z,18.57
2018-05-13T12:52:11.017Z,19.13
2018-05-13T12:54:37.440Z,16.73
2018-05-13T12:57:03.661Z,17.43
2018-05-13T12:59:30.662Z,17.50
2018-05-13T13:01:56.932Z,16.33
2018-05-13T13:04:23.192Z,12.63
2018-05-13T13:06:49.472Z,13.20
2018-05-13T13:09:15.717Z,16.17
2018-05-13T13:11:41.915Z,13.20
2018-05-13T13:14:08.171Z,12.37
2018-05-13T13:16:34.451Z,13.50
2018-05-13T13:19:01.556Z,15.03
2018-05-13T13:21:27.820Z,12.80
2018-05-13T13:23:54.087Z,13.13
2018-05-13T13:26:21.081Z,13.57
2018-05-13T13:28:47.403Z,14.00
2018-05-13T13:31:13.727Z,14.63
2018-05-13T13:33:39.956Z,15.50
2018-05-13T13:36:06.255Z,16.10
2018-05-13T13:38:32.514Z,16.03
2018-05-13T13:40:59.216Z,18.40
2018-05-13T13:43:25.511Z,18.23
2018-05-13T13:45:52.515Z,16.57
2018-05-13T13:48:18.737Z,16.43
2018-05-13T13:50:45.007Z,17.43
2018-05-13T13:53:11.252Z,15.33
2018-05-13T13:55:37.475Z,13.40
2018-05-13T13:58:03.791Z,15.93
2018-05-13T14:00:30.158Z,15.47
2018-05-13T14:02:57.218Z,14.67
2018-05-13T14:05:23.532Z,17.30
2018-05-13T14:07:51.275Z,14.83
2018-05-13T14:10:17.473Z,15.33
2018-05-13T14:12:44.248Z,16.70
2018-05-13T14:15:10.531Z,16.20
2018-05-13T14:17:36.820Z,16.77
2018-05-13T14:20:03.846Z,19.10
2018-05-13T14:22:30.086Z,20.97
2018-05-13T14:24:57.056Z,19.00
2018-05-13T14:27:23.320Z,16.83
2018-05-13T14:29:50.345Z,18.90
2018-05-13T14:32:16.613Z,18.90
2018-05-13T14:34:43.287Z,21.37
2018-05-13T14:37:09.545Z,22.57
2018-05-13T14:39:36.562Z,24.27
2018-05-13T14:42:02.807Z,21.77
2018-05-13T14:44:29.116Z,21.80
2018-05-13T14:46:55.347Z,21.97
2018-05-13T14:49:22.406Z,22.70
2018-05-13T14:51:49.291Z,19.37
2018-05-13T14:54:16.338Z,21.57
2018-05-13T14:56:43.362Z,22.93
2018-05-13T14:59:09.647Z,20.63
2018-05-13T15:01:36.595Z,22.47
2018-05-13T15:04:04.150Z,24.20
2018-05-13T15:06:30.796Z,23.13
2018-05-13T15:08:57.443Z,24.73
2018-05-13T15:11:24.471Z,24.60
2018-05-13T15:13:50.723Z,22.97
2018-05-13T15:16:17.428Z,24.07
2018-05-13T15:18:44.048Z,24.57
2018-05-13T15:21:10.672Z,23.90
2018-05-13T15:23:37.681Z,23.70
2018-05-13T15:26:04.000Z,24.93
2018-05-13T15:28:31.017Z,24.00
2018-05-13T15:30:58.036Z,24.53
2018-05-13T15:33:24.317Z,23.83
2018-05-13T15:35:50.988Z,25.67
2018-05-13T15:38:17.646Z,25.67
2018-05-13T15:40:43.931Z,23.87
2018-05-13T15:43:11.081Z,26.53
2018-05-13T15:45:38.024Z,27.07
2018-05-13T15:48:05.084Z,26.57
2018-05-13T15:50:31.761Z,26.37
2018-05-13T15:52:58.478Z,29.23
2018-05-13T15:55:25.470Z,30.33
2018-05-13T15:57:51.823Z,29.17
2018-05-13T16:00:18.112Z,19.93
2018-05-13T16:02:44.833Z,26.30
2018-05-13T16:05:11.107Z,29.50
2018-05-13T16:07:37.408Z,25.10
2018-05-13T16:10:03.714Z,29.57
2018-05-13T16:12:30.017Z,26.47
2018-05-13T16:14:56.694Z,29.83
2018-05-13T16:17:24.077Z,23.23
2018-05-13T16:19:50.622Z,30.40
2018-05-13T16:22:16.912Z,28.13
2018-05-13T16:24:43.958Z,28.90
2018-05-13T16:27:10.238Z,29.80
2018-05-13T16:29:38.218Z,30.20
2018-05-13T16:32:05.654Z,32.37
2018-05-13T16:34:32.997Z,30.43
2018-05-13T16:36:59.908Z,29.30
2018-05-13T16:39:26.878Z,27.33
2018-05-13T16:41:54.692Z,28.97
2018-05-13T16:44:21.768Z,31.83
2018-05-13T16:46:48.051Z,30.37
2018-05-13T16:49:15.711Z,31.67
2018-05-13T16:51:42.770Z,31.43
2018-05-13T16:54:09.444Z,30.67
2018-05-13T16:56:36.871Z,31.60
2018-05-13T16:59:03.945Z,29.00
2018-05-13T17:01:30.208Z,28.93
2018-05-13T17:03:56.497Z,25.87
2018-05-13T17:06:23.476Z,30.93
2018-05-13T17:08:49.821Z,28.90
2018-05-13T17:11:17.757Z,29.10
2018-05-13T17:13:44.827Z,28.60
2018-05-13T17:16:11.861Z,27.77
2018-05-13T17:18:38.506Z,25.87
2018-05-13T17:21:05.504Z,27.53
2018-05-13T17:23:31.889Z,27.90
2018-05-13T17:25:58.108Z,30.23
2018-05-13T17:28:24.412Z,28.20
2018-05-13T17:30:51.427Z,26.23
2018-05-13T17:33:18.425Z,20.53
2018-05-13T17:35:44.685Z,26.60
2018-05-13T17:38:10.968Z,27.03
2018-05-13T17:40:38.023Z,29.20
2018-05-13T17:43:05.033Z,28.83
2018-05-13T17:45:32.234Z,30.43
2018-05-13T17:47:58.559Z,28.13
2018-05-13T17:50:25.618Z,29.20
2018-05-13T17:52:52.618Z,27.30
2018-05-13T17:55:19.614Z,25.70
2018-05-13T17:57:46.306Z,26.90
2018-05-13T18:00:12.592Z,28.23
2018-05-13T18:02:38.848Z,27.97
2018-05-13T18:05:05.875Z,23.97
2018-05-13T18:07:32.259Z,30.73
2018-05-13T18:09:58.545Z,30.33
2018-05-13T18:12:24.872Z,31.57
2018-05-13T18:14:51.187Z,28.73
2018-05-13T18:17:18.757Z,25.43
2018-05-13T18:19:45.085Z,19.97
2018-05-13T18:22:11.417Z,28.53
2018-05-13T18:24:37.771Z,33.47
2018-05-13T18:27:04.705Z,30.17
2018-05-13T18:29:31.193Z,35.37
2018-05-13T18:31:57.508Z,36.30
2018-05-13T18:34:23.812Z,7.03
2018-05-13T18:36:52.665Z,22.57
2018-05-13T18:39:20.093Z,18.80
2018-05-13T18:41:46.371Z,21.20
2018-05-13T18:44:14.429Z,3.83
2018-05-13T18:46:41.297Z,20.57
2018-05-13T18:49:07.593Z,16.63
2018-05-13T18:51:34.308Z,17.43
2018-05-13T18:54:02.804Z,14.23
2018-05-13T18:56:30.232Z,16.00
2018-05-13T18:58:57.950Z,8.67
2018-05-13T19:01:25.869Z,5.57
2018-05-13T19:03:52.854Z,6.13
2018-05-13T19:06:19.389Z,10.03
2018-05-13T19:08:47.064Z,4.17
2018-05-13T19:11:23.224Z,6.47
2018-05-13T19:13:50.702Z,12.23
2018-05-13T19:16:17.080Z,13.23
2018-05-13T19:18:44.290Z,10.97
2018-05-13T19:21:10.564Z,15.03
2018-05-13T19:23:37.603Z,8.63
2018-05-13T19:26:03.883Z,12.40
2018-05-13T19:28:30.145Z,9.53
2018-05-13T19:30:57.678Z,11.90
2018-05-13T19:33:24.653Z,8.67
2018-05-13T19:35:50.963Z,10.17
2018-05-13T19:38:18.223Z,9.17
2018-05-13T19:40:44.733Z,6.90
2018-05-13T19:43:11.570Z,7.60
2018-05-13T19:45:38.277Z,6.97
2018-05-13T19:48:06.107Z,6.73
2018-05-13T19:50:33.893Z,8.30
2018-05-13T19:53:02.281Z,7.60
2018-05-13T19:55:29.269Z,8.10
2018-05-13T19:57:57.339Z,9.33
2018-05-13T20:00:24.508Z,9.20
2018-05-13T20:02:51.896Z,11.40
2018-05-13T20:05:19.652Z,11.77
2018-05-13T20:07:45.968Z,12.77
2018-05-13T20:10:12.272Z,17.53
2018-05-13T20:12:39.698Z,15.00
2018-05-13T20:15:06.707Z,22.20
2018-05-13T20:17:34.925Z,13.27
2018-05-13T20:20:03.183Z,19.53
2018-05-13T20:22:31.066Z,13.23
2018-05-13T20:24:57.809Z,21.77
2018-05-13T20:27:24.884Z,15.97
2018-05-13T20:29:52.846Z,27.10
2018-05-13T20:32:19.098Z,18.60
2018-05-13T20:34:46.778Z,22.10
2018-05-13T20:37:13.405Z,24.50
2018-05-13T20:39:39.668Z,21.93
2018-05-13T20:42:06.308Z,22.20
2018-05-13T20:44:32.609Z,21.17
2018-05-13T20:46:59.044Z,21.20
2018-05-13T20:49:25.452Z,23.17
2018-05-13T20:51:52.084Z,20.23
2018-05-13T20:54:18.378Z,11.83
2018-05-13T20:56:45.404Z,22.90
2018-05-13T20:59:12.434Z,20.03
2018-05-13T21:01:39.366Z,27.83
2018-05-13T21:04:05.616Z,20.40
2018-05-13T21:06:31.925Z,23.03
2018-05-13T21:08:58.184Z,12.93
2018-05-13T21:11:24.483Z,25.23
2018-05-13T21:13:50.739Z,16.77
2018-05-13T21:16:17.031Z,21.13
2018-05-13T21:18:44.330Z,17.93
2018-05-13T21:21:12.405Z,18.93
2018-05-13T21:23:38.650Z,20.73
2018-05-13T21:26:05.389Z,20.83
2018-05-13T21:28:33.489Z,22.53
2018-05-13T21:30:59.791Z,18.30
2018-05-13T21:33:26.544Z,19.33
2018-05-13T21:35:57.560Z,24.40
2018-05-13T21:38:24.883Z,14.93
2018-05-13T21:40:51.149Z,21.93
2018-05-13T21:43:18.138Z,24.00
2018-05-13T21:45:44.935Z,22.83
2018-05-13T21:48:11.831Z,17.17
2018-05-13T21:50:38.841Z,18.47
2018-05-13T21:53:05.083Z,13.37
2018-05-13T21:55:32.123Z,17.27
2018-05-13T21:57:58.383Z,22.00
2018-05-13T22:00:25.375Z,20.27
2018-05-13T22:02:52.364Z,23.43
2018-05-13T22:05:18.644Z,17.43
2018-05-13T22:07:44.893Z,24.10
2018-05-13T22:10:11.149Z,24.90
2018-05-13T22:12:37.743Z,14.20
2018-05-13T22:15:04.704Z,22.87
2018-05-13T22:17:31.783Z,23.03
2018-05-13T22:19:58.772Z,20.87
2018-05-13T22:22:24.992Z,19.83
2018-05-13T22:24:51.984Z,19.13
2018-05-13T22:27:18.960Z,14.80
2018-05-13T22:29:45.954Z,15.03
2018-05-13T22:32:12.528Z,20.40
2018-05-13T22:34:39.528Z,18.50
2018-05-13T22:37:06.124Z,23.70
2018-05-13T22:39:33.179Z,16.87
2018-05-13T22:42:00.165Z,18.90
2018-05-13T22:44:33.125Z,17.37
2018-05-13T22:46:59.808Z,19.03
2018-05-13T22:49:26.039Z,19.17
2018-05-13T22:51:52.284Z,18.37
2018-05-13T22:54:20.506Z,20.57
2018-05-13T22:56:47.506Z,17.97
2018-05-13T22:59:13.734Z,18.97
2018-05-13T23:01:40.033Z,15.43
2018-05-13T23:04:07.145Z,18.67
2018-05-13T23:06:33.374Z,18.87
2018-05-13T23:08:59.634Z,17.83
2018-05-13T23:11:26.045Z,14.03
2018-05-13T23:13:52.320Z,18.07
2018-05-13T23:16:19.305Z,14.23
2018-05-13T23:18:45.915Z,12.60
2018-05-13T23:21:13.678Z,9.73
2018-05-13T23:23:39.999Z,12.50
2018-05-13T23:26:06.224Z,17.60
2018-05-13T23:28:32.555Z,15.67
2018-05-13T23:30:58.714Z,14.03
2018-05-13T23:33:24.941Z,15.70
2018-05-13T23:35:51.184Z,13.77
2018-05-13T23:38:17.437Z,13.10
2018-05-13T23:40:43.680Z,13.90
2018-05-13T23:43:10.719Z,11.67
2018-05-13T23:45:37.705Z,13.97
2018-05-13T23:48:04.665Z,14.77
2018-05-13T23:50:30.916Z,13.20
2018-05-13T23:52:57.188Z,13.70
2018-05-13T23:55:23.420Z,13.83
2018-05-13T23:57:49.681Z,14.63
